createdAt,value
2019-06-07T00:08:56.076Z,0.0
2019-06-07T00:19:24.119Z,0.0
2019-06-07T00:29:39.687Z,0.0
2019-06-07T00:40:31.765Z,0.0
2019-06-07T00:51:17.182Z,0.0
2019-06-07T01:01:41.187Z,0.0
2019-06-07T01:11:59.974Z,0.0
2019-06-07T01:22:48.343Z,0.0
2019-06-07T01:33:49.851Z,0.0
2019-06-07T01:43:46.901Z,0.0
2019-06-07T01:54:48.123Z,0.0
2019-06-07T02:04:12.469Z,0.0
2019-06-07T02:14:29.519Z,0.0
2019-06-07T02:24:40.754Z,0.0
2019-06-07T02:34:59.664Z,0.0
2019-06-07T02:45:50.007Z,0.0
2019-06-07T02:56:35.455Z,0.0
2019-06-07T03:06:16.354Z,0.0
2019-06-07T03:16:37.163Z,10.0
2019-06-07T03:27:31.717Z,15.0
2019-06-07T03:37:40.087Z,25.0
2019-06-07T03:48:00.109Z,40.0
2019-06-07T03:58:31.224Z,55.0
2019-06-07T04:08:38.195Z,75.0
2019-06-07T04:18:48.140Z,90.0
2019-06-07T04:29:47.864Z,90.0
2019-06-07T04:40:31.846Z,70.0
2019-06-07T04:51:21.256Z,85.0
2019-06-07T05:02:12.244Z,120.0
2019-06-07T05:12:25.514Z,140.0
2019-06-07T05:23:10.298Z,155.0
2019-06-07T05:33:31.175Z,165.0
2019-06-07T05:44:19.291Z,180.0
2019-06-07T05:55:08.771Z,195.0
2019-06-07T06:05:33.381Z,215.0
2019-06-07T06:16:56.748Z,245.0
2019-06-07T06:28:19.848Z,290.0
2019-06-07T06:38:39.655Z,250.0
2019-06-07T06:49:27.865Z,380.0
2019-06-07T06:59:49.286Z,495.0
2019-06-07T07:10:33.081Z,870.0
2019-06-07T07:21:01.936Z,560.0
2019-06-07T07:31:19.103Z,490.0
2019-06-07T07:41:32.647Z,490.0
2019-06-07T07:52:27.373Z,500.0
2019-06-07T08:03:16.205Z,595.0
2019-06-07T08:13:35.441Z,470.0
2019-06-07T08:24:12.893Z,545.0
2019-06-07T08:34:43.916Z,540.0
2019-06-07T08:45:03.179Z,650.0
2019-06-07T08:55:12.252Z,660.0
2019-06-07T09:05:32.681Z,620.0
2019-06-07T09:15:46.338Z,710.0
2019-06-07T09:26:36.270Z,785.0
2019-06-07T09:38:03.701Z,910.0
2019-06-07T09:49:01.266Z,1010.0
2019-06-07T09:58:54.195Z,965.0
2019-06-07T10:10:04.753Z,1685.0
2019-06-07T10:19:46.297Z,2005.0
2019-06-07T10:30:35.305Z,1975.0
2019-06-07T10:41:24.738Z,1055.0
2019-06-07T10:52:11.598Z,625.0
2019-06-07T11:02:55.755Z,600.0
2019-06-07T11:13:44.212Z,510.0
2019-06-07T11:24:03.709Z,500.0
2019-06-07T11:34:51.627Z,545.0
2019-06-07T11:45:40.474Z,550.0
2019-06-07T11:55:54.680Z,1715.0
2019-06-07T12:06:09.979Z,2015.0
2019-06-07T12:17:04.235Z,1925.0
2019-06-07T12:27:18.723Z,1810.0
2019-06-07T12:37:42.683Z,1785.0
2019-06-07T12:47:53.049Z,1940.0
2019-06-07T12:58:42.027Z,1840.0
2019-06-07T13:09:31.338Z,1525.0
2019-06-07T13:20:22.702Z,1475.0
2019-06-07T13:31:14.412Z,1320.0
2019-06-07T13:42:56.900Z,1120.0
2019-06-07T13:53:48.781Z,410.0
2019-06-07T14:04:03.885Z,475.0
2019-06-07T14:14:20.079Z,870.0
2019-06-07T14:24:33.099Z,1195.0
2019-06-07T14:35:22.614Z,800.0
2019-06-07T14:46:13.062Z,560.0
2019-06-07T14:56:29.509Z,395.0
2019-06-07T15:06:45.584Z,335.0
2019-06-07T15:17:35.298Z,400.0
2019-06-07T15:28:27.672Z,210.0
2019-06-07T15:38:43.440Z,170.0
2019-06-07T15:48:58.473Z,205.0
2019-06-07T15:59:13.818Z,245.0
2019-06-07T16:09:59.955Z,90.0
2019-06-07T16:20:49.945Z,70.0
2019-06-07T16:31:40.979Z,35.0
2019-06-07T16:41:57.847Z,30.0
2019-06-07T16:52:48.115Z,15.0
2019-06-07T17:03:37.301Z,15.0
2019-06-07T17:13:54.384Z,70.0
2019-06-07T17:24:13.064Z,90.0
2019-06-07T17:35:03.742Z,95.0
2019-06-07T17:45:18.976Z,85.0
2019-06-07T17:55:34.382Z,115.0
2019-06-07T18:06:28.936Z,100.0
2019-06-07T18:16:44.385Z,85.0
2019-06-07T18:27:37.053Z,75.0
2019-06-07T18:37:53.067Z,55.0
2019-06-07T18:48:38.769Z,45.0
2019-06-07T18:59:06.375Z,20.0
2019-06-07T19:09:23.768Z,30.0
2019-06-07T19:19:38.514Z,15.0
2019-06-07T19:30:31.857Z,10.0
2019-06-07T19:41:20.255Z,5.0
2019-06-07T19:52:48.353Z,0.0
2019-06-07T20:03:07.324Z,0.0
2019-06-07T20:13:23.706Z,0.0
2019-06-07T20:24:26.472Z,0.0
2019-06-07T20:34:33.845Z,0.0
2019-06-07T20:45:32.118Z,0.0
2019-06-07T20:55:33.913Z,0.0
2019-06-07T21:06:28.769Z,0.0
2019-06-07T21:16:44.147Z,0.0
2019-06-07T21:27:36.864Z,0.0
2019-06-07T21:38:25.129Z,0.0
2019-06-07T21:48:42.958Z,0.0
2019-06-07T21:59:30.295Z,0.0
2019-06-07T22:10:17.250Z,0.0
2019-06-07T22:21:06.704Z,0.0
2019-06-07T22:31:22.781Z,0.0
2019-06-07T22:41:38.840Z,0.0
2019-06-07T22:52:07.745Z,0.0
2019-06-07T23:02:10.422Z,0.0
2019-06-07T23:12:23.525Z,0.0
2019-06-07T23:23:10.050Z,0.0
2019-06-07T23:33:25.033Z,0.0
2019-06-07T23:43:40.085Z,0.0
2019-06-07T23:54:30.019Z,0.0
